Hyderabad, Pakistan
Current Conditions -  °F | °C
As of 10:55 AM on Thursday 23 Oct 2014 (Local Time) from OPNH Reporting Station
Clear Clear  
Wind Chill: 34°   Ceiling: Unl
Heat Index: 34°   Visibility: 4mi
Dew Point: 17°   Wind: 5mph
Humidity: 36%   Direction: 135°SE
Pressure: 29.94"   Gusts: NA
Location:  25.38°N, 68.37°E
Report Text: OPNH 230555Z 13504KT 6000M NSC 34/17 Q1014
Loading
Personal Weather Stations






























Interactive Weather Map
Tropical Storm Tracking
New forecast layout! Learn more

10-Day Weather Forecast

Advertisements
Track Severe Weather on mobile